Time;durP1;ratioP1;P1;durP2;ratioP2;P2;SDS_P1;SDS_P2;PMS_P1;PMS_P2;Temp;Humidity;BMP_temperature;BMP_pressure;BME280_temperature;BME280_humidity;BME280_pressure;Samples;Min_cycle;Max_cycle;Signal;HPM_P1;HPM_P2
2023/12/16 00:00:57;;;;;;;14.30;1.75;;;;;;;6.29;81.17;102249.22;5005895;28;20065;-51
2023/12/16 00:03:26;;;;;;;15.30;1.95;;;;;;;6.29;81.00;102244.06;4997392;28;20073;-46
2023/12/16 00:05:53;;;;;;;8.27;1.70;;;;;;;6.29;80.71;102234.63;4995828;28;20465;-46
2023/12/16 00:08:21;;;;;;;14.45;2.55;;;;;;;6.33;80.33;102230.56;4995483;28;20057;-45
2023/12/16 00:10:48;;;;;;;8.13;1.25;;;;;;;6.34;81.39;102236.56;5002148;28;20053;-43
2023/12/16 00:13:20;;;;;;;9.57;1.52;;;;;;;6.34;81.40;102228.84;4998718;28;20154;-46
2023/12/16 00:15:47;;;;;;;4.60;1.52;;;;;;;6.35;82.44;102235.78;5004923;28;20052;-45
2023/12/16 00:18:13;;;;;;;11.05;2.75;;;;;;;6.40;82.32;102227.47;5001317;28;20510;-45
2023/12/16 00:20:40;;;;;;;4.35;1.70;;;;;;;6.38;81.92;102223.94;5000517;28;20054;-47
2023/12/16 00:23:07;;;;;;;10.25;2.28;;;;;;;6.41;82.58;102224.09;4998020;28;20061;-49
2023/12/16 00:25:34;;;;;;;9.35;2.33;;;;;;;6.42;82.47;102223.28;5006299;28;20054;-42
2023/12/16 00:28:00;;;;;;;7.40;2.15;;;;;;;6.41;82.58;102213.78;5000183;28;20115;-49
2023/12/16 00:30:27;;;;;;;6.18;2.70;;;;;;;6.40;82.70;102206.88;5003551;28;20047;-50
2023/12/16 00:32:54;;;;;;;9.02;2.50;;;;;;;6.42;81.38;102204.38;5000552;28;20061;-50
2023/12/16 00:35:21;;;;;;;6.30;2.42;;;;;;;6.40;82.51;102199.16;5000646;28;20046;-48
2023/12/16 00:37:47;;;;;;;5.93;1.73;;;;;;;6.47;83.08;102202.03;5004712;28;20081;-45
2023/12/16 00:40:14;;;;;;;5.63;2.28;;;;;;;6.50;83.64;102202.19;4999242;28;20054;-47
2023/12/16 00:42:41;;;;;;;9.18;2.30;;;;;;;6.52;83.29;102210.88;4999420;28;20042;-50
2023/12/16 00:45:08;;;;;;;6.95;2.95;;;;;;;6.52;82.43;102214.31;5000766;28;20046;-53
2023/12/16 00:47:38;;;;;;;9.30;2.10;;;;;;;6.50;81.79;102209.91;4995454;28;20042;-47
2023/12/16 00:50:08;;;;;;;10.68;2.63;;;;;;;6.50;81.69;102207.31;4997933;28;20046;-48
2023/12/16 00:52:35;;;;;;;5.68;2.53;;;;;;;6.47;82.01;102199.44;4997949;28;20567;-51
2023/12/16 00:55:02;;;;;;;8.35;2.38;;;;;;;6.47;82.36;102202.03;4998393;28;20412;-47
2023/12/16 00:57:29;;;;;;;5.35;1.70;;;;;;;6.45;83.45;102195.94;4999734;28;20128;-45
2023/12/16 00:59:55;;;;;;;11.50;2.53;;;;;;;6.46;82.13;102184.81;4996839;28;20050;-44
2023/12/16 01:02:22;;;;;;;13.50;2.42;;;;;;;6.47;83.75;102187.47;4991503;28;20056;-52
2023/12/16 01:04:49;;;;;;;10.52;2.55;;;;;;;6.46;83.12;102184.81;5000021;28;20058;-48
2023/12/16 01:07:15;;;;;;;9.93;2.58;;;;;;;6.49;82.57;102177.25;4999747;28;20069;-44
2023/12/16 01:09:42;;;;;;;5.93;2.65;;;;;;;6.51;83.07;102183.34;5005276;28;20050;-46
2023/12/16 01:12:09;;;;;;;10.52;2.05;;;;;;;6.49;82.13;102174.66;5006412;28;20543;-44
2023/12/16 01:14:35;;;;;;;5.97;2.15;;;;;;;6.49;83.69;102187.53;5005454;28;20046;-49
2023/12/16 01:17:02;;;;;;;8.35;2.13;;;;;;;6.50;81.84;102184.16;4997907;28;20048;-47
2023/12/16 01:19:29;;;;;;;8.10;2.63;;;;;;;6.48;83.57;102188.38;5011163;28;20491;-48
2023/12/16 01:21:56;;;;;;;5.95;1.70;;;;;;;6.46;82.89;102177.09;5000939;28;20050;-50
2023/12/16 01:24:23;;;;;;;4.28;1.73;;;;;;;6.49;83.38;102182.41;5005647;28;20049;-46
2023/12/16 01:26:49;;;;;;;6.95;1.60;;;;;;;6.53;83.68;102181.72;4998982;28;20183;-45
2023/12/16 01:29:17;;;;;;;4.72;1.95;;;;;;;6.53;84.15;102181.72;5004922;28;20046;-47
2023/12/16 01:31:44;;;;;;;7.43;2.00;;;;;;;6.55;84.91;102174.94;5000751;28;20057;-49
2023/12/16 01:34:11;;;;;;;7.15;1.80;;;;;;;6.60;84.98;102173.50;5007474;28;20085;-47
2023/12/16 01:36:38;;;;;;;4.80;1.95;;;;;;;6.64;83.52;102179.66;4999278;28;20098;-48
2023/12/16 01:39:05;;;;;;;4.70;2.00;;;;;;;6.68;83.16;102176.44;5001838;28;20463;-45
2023/12/16 01:41:33;;;;;;;4.82;1.60;;;;;;;6.71;85.24;102180.84;4996834;28;20042;-47
2023/12/16 01:44:00;;;;;;;7.65;2.33;;;;;;;6.74;84.47;102173.25;5003920;28;20050;-53
2023/12/16 01:46:28;;;;;;;4.70;1.65;;;;;;;6.78;84.44;102173.50;4999577;28;20081;-48
2023/12/16 01:48:56;;;;;;;3.88;2.20;;;;;;;6.86;84.21;102181.56;5002084;28;20098;-47
2023/12/16 01:51:24;;;;;;;5.72;2.17;;;;;;;6.93;83.70;102183.63;4999983;28;20125;-48
2023/12/16 01:53:52;;;;;;;7.22;1.73;;;;;;;6.94;85.36;102181.94;5000604;28;20058;-47
2023/12/16 01:56:21;;;;;;;7.95;2.50;;;;;;;6.99;84.91;102177.00;4995165;28;20091;-45
2023/12/16 01:58:49;;;;;;;7.97;2.33;;;;;;;7.00;84.09;102183.91;5005730;28;20056;-51
2023/12/16 02:01:17;;;;;;;7.38;3.05;;;;;;;7.06;85.01;102185.06;4995241;28;20047;-52
2023/12/16 02:03:45;;;;;;;5.75;2.47;;;;;;;7.03;84.75;102176.34;5013911;28;20041;-51
2023/12/16 02:06:14;;;;;;;5.72;2.08;;;;;;;7.05;85.02;102172.13;4996649;28;20050;-48
2023/12/16 02:08:44;;;;;;;3.47;2.10;;;;;;;7.07;86.11;102165.34;5003892;28;20042;-48
2023/12/16 02:11:12;;;;;;;2.67;1.52;;;;;;;7.11;86.23;102167.25;5008318;28;20108;-44
2023/12/16 02:13:41;;;;;;;5.60;2.80;;;;;;;7.18;84.92;102173.56;5007870;28;20052;-46
2023/12/16 02:16:10;;;;;;;3.45;2.50;;;;;;;7.23;85.85;102163.47;5003764;28;20499;-46
2023/12/16 02:18:37;;;;;;;7.30;3.05;;;;;;;7.26;85.55;102164.47;4996636;28;20077;-47
2023/12/16 02:21:04;;;;;;;7.07;2.53;;;;;;;7.30;84.96;102173.25;5005645;28;20152;-50
2023/12/16 02:23:31;;;;;;;4.65;2.30;;;;;;;7.34;84.35;102170.00;4999405;28;20038;-50
2023/12/16 02:25:58;;;;;;;8.18;2.78;;;;;;;7.34;85.61;102167.41;4998182;28;20132;-44
2023/12/16 02:28:24;;;;;;;6.00;2.78;;;;;;;7.42;85.77;102160.91;5002488;28;20710;-51
2023/12/16 02:30:51;;;;;;;6.55;3.10;;;;;;;7.45;85.57;102158.47;4996749;28;20050;-48
2023/12/16 02:33:18;;;;;;;6.00;2.90;;;;;;;7.50;84.51;102155.22;5003692;28;20104;-52
2023/12/16 02:35:45;;;;;;;6.75;3.33;;;;;;;7.52;85.34;102153.56;5007840;28;20553;-45
2023/12/16 02:38:12;;;;;;;6.32;2.75;;;;;;;7.56;84.68;102151.19;5001006;28;20057;-49
2023/12/16 02:40:42;;;;;;;6.38;2.80;;;;;;;7.54;84.97;102164.84;4999144;28;20439;-47
2023/12/16 02:43:09;;;;;;;7.45;2.92;;;;;;;7.60;85.66;102157.34;5000455;28;20042;-47
2023/12/16 02:45:36;;;;;;;7.78;3.35;;;;;;;7.64;86.34;102150.66;4996487;28;20058;-46
2023/12/16 02:48:02;;;;;;;6.07;3.08;;;;;;;7.70;85.01;102156.94;4995378;28;21214;-50
2023/12/16 02:50:29;;;;;;;5.53;3.20;;;;;;;7.74;85.68;102159.66;4997691;28;20046;-51
2023/12/16 02:52:56;;;;;;;6.03;2.50;;;;;;;7.77;85.54;102158.09;4995689;28;20678;-50
2023/12/16 02:55:22;;;;;;;8.40;2.60;;;;;;;7.79;85.66;102153.00;4997106;28;20042;-46
2023/12/16 02:57:49;;;;;;;9.07;3.55;;;;;;;7.88;85.20;102157.66;4992126;28;20056;-49
2023/12/16 03:00:16;;;;;;;8.32;3.40;;;;;;;7.90;85.25;102150.91;5003210;28;20080;-47
2023/12/16 03:02:42;;;;;;;7.97;3.53;;;;;;;7.89;86.95;102167.16;5003725;28;20053;-50
2023/12/16 03:05:09;;;;;;;5.88;2.72;;;;;;;7.92;86.13;102165.63;4985481;28;20048;-49
2023/12/16 03:07:38;;;;;;;6.93;2.78;;;;;;;7.96;86.54;102164.94;4999851;28;20042;-49
2023/12/16 03:10:05;;;;;;;8.65;2.85;;;;;;;8.01;86.58;102167.72;5001883;28;20529;-46
2023/12/16 03:12:32;;;;;;;9.38;3.28;;;;;;;8.07;85.35;102169.66;5005579;28;20128;-47
2023/12/16 03:14:59;;;;;;;6.35;3.15;;;;;;;8.08;86.26;102172.28;5001408;28;20047;-46
2023/12/16 03:17:25;;;;;;;9.75;3.83;;;;;;;8.09;85.60;102168.03;5005784;28;20562;-45
2023/12/16 03:19:52;;;;;;;5.70;3.15;;;;;;;8.14;85.74;102165.63;5000709;28;20057;-48
2023/12/16 03:22:19;;;;;;;9.40;3.80;;;;;;;8.16;85.25;102164.88;5001630;28;20419;-48
2023/12/16 03:24:46;;;;;;;6.15;2.88;;;;;;;8.16;85.88;102169.16;5003498;28;20078;-46
2023/12/16 03:27:13;;;;;;;9.07;3.58;;;;;;;8.21;84.91;102167.66;4998441;28;20045;-48
2023/12/16 03:29:39;;;;;;;9.30;3.50;;;;;;;8.22;85.41;102164.25;4993427;28;20046;-46
2023/12/16 03:32:06;;;;;;;9.02;3.72;;;;;;;8.22;85.50;102159.97;4997632;28;20041;-48
2023/12/16 03:34:32;;;;;;;9.13;4.13;;;;;;;8.25;85.49;102153.16;5004820;28;20053;-47
2023/12/16 03:36:59;;;;;;;9.75;3.30;;;;;;;8.25;85.37;102163.50;5004442;28;20050;-45
2023/12/16 03:39:26;;;;;;;8.77;3.53;;;;;;;8.22;85.62;102159.97;4998468;28;20070;-45
2023/12/16 03:41:53;;;;;;;8.40;3.65;;;;;;;8.26;85.60;102160.09;5000661;28;20053;-45
2023/12/16 03:44:19;;;;;;;9.85;3.75;;;;;;;8.27;84.95;102152.41;5001824;28;20057;-45
2023/12/16 03:46:46;;;;;;;8.65;3.58;;;;;;;8.26;85.16;102157.50;5000066;28;20045;-50
2023/12/16 03:49:12;;;;;;;7.80;3.58;;;;;;;8.28;85.02;102158.47;5002511;28;20057;-49
2023/12/16 03:51:39;;;;;;;8.30;3.35;;;;;;;8.29;84.87;102171.44;5000202;28;20506;-46
2023/12/16 03:54:06;;;;;;;8.38;4.10;;;;;;;8.29;85.40;102165.38;5007883;28;20054;-48
2023/12/16 03:56:33;;;;;;;12.18;4.20;;;;;;;8.33;84.81;102167.25;5002445;28;20100;-44
2023/12/16 03:58:59;;;;;;;7.70;4.03;;;;;;;8.33;85.38;102173.31;5001762;28;20050;-51
2023/12/16 04:01:26;;;;;;;9.93;4.00;;;;;;;8.37;84.91;102179.47;5001468;28;20053;-47
2023/12/16 04:03:53;;;;;;;10.02;3.65;;;;;;;8.39;85.65;102175.28;5006337;28;20037;-46
2023/12/16 04:06:20;;;;;;;9.25;3.85;;;;;;;8.42;85.14;102179.66;5004984;28;20052;-50
2023/12/16 04:08:47;;;;;;;7.60;2.97;;;;;;;8.43;84.79;102184.91;5001569;28;20056;-52
2023/12/16 04:11:13;;;;;;;9.35;3.75;;;;;;;8.46;84.92;102178.97;5004932;28;20133;-46
2023/12/16 04:13:40;;;;;;;9.75;3.65;;;;;;;8.47;84.95;102186.78;5000222;28;20050;-56
2023/12/16 04:16:07;;;;;;;10.45;4.03;;;;;;;8.51;85.04;102177.44;4990033;28;20046;-49
2023/12/16 04:18:34;;;;;;;9.85;3.97;;;;;;;8.54;85.10;102177.63;4995991;28;20073;-45
2023/12/16 04:21:01;;;;;;;10.02;3.42;;;;;;;8.56;84.85;102169.94;5001595;28;20057;-47
2023/12/16 04:23:28;;;;;;;7.25;2.80;;;;;;;8.59;85.62;102170.06;4998054;28;20082;-46
2023/12/16 04:25:55;;;;;;;8.05;3.25;;;;;;;8.60;85.37;102167.53;5000732;28;20042;-47
2023/12/16 04:28:22;;;;;;;10.40;3.53;;;;;;;8.62;85.48;102165.03;4997852;28;20057;-45
2023/12/16 04:30:48;;;;;;;5.68;2.92;;;;;;;8.64;85.91;102168.53;5009248;28;20098;-42
2023/12/16 04:33:15;;;;;;;7.45;3.63;;;;;;;8.69;85.52;102172.19;5004233;28;20089;-45
2023/12/16 04:35:42;;;;;;;6.95;2.88;;;;;;;8.68;85.89;102165.25;4996715;28;20058;-46
2023/12/16 04:38:09;;;;;;;9.15;3.60;;;;;;;8.74;85.33;102168.06;4999273;28;20047;-46
2023/12/16 04:40:36;;;;;;;8.15;3.55;;;;;;;8.77;85.75;102174.16;4999325;28;20542;-44
2023/12/16 04:43:03;;;;;;;8.10;3.50;;;;;;;8.81;85.87;102170.91;4998597;28;20045;-48
2023/12/16 04:45:30;;;;;;;12.10;4.00;;;;;;;8.84;85.83;102171.00;5001098;28;20046;-48
2023/12/16 04:47:56;;;;;;;7.75;3.65;;;;;;;8.85;86.19;102162.44;4999469;28;20050;-49
2023/12/16 04:50:23;;;;;;;7.63;3.00;;;;;;;8.87;86.04;102158.22;4999319;28;20048;-51
2023/12/16 04:52:50;;;;;;;5.30;2.45;;;;;;;8.87;86.32;102166.84;4999736;28;20503;-52
2023/12/16 04:55:16;;;;;;;5.80;2.75;;;;;;;8.91;86.05;102167.84;4997385;28;20049;-51
2023/12/16 04:57:43;;;;;;;7.00;3.28;;;;;;;8.96;86.03;102173.19;5002117;28;20050;-46
2023/12/16 05:00:11;;;;;;;5.43;2.47;;;;;;;8.96;85.96;102174.09;4999080;28;20054;-50
2023/12/16 05:02:37;;;;;;;5.95;3.10;;;;;;;8.99;85.97;102171.59;5005114;28;20038;-45
2023/12/16 05:05:04;;;;;;;7.47;2.63;;;;;;;9.03;85.83;102167.44;4999752;28;20069;-46
2023/12/16 05:07:31;;;;;;;6.70;2.58;;;;;;;9.04;85.88;102169.19;4994478;28;20393;-51
2023/12/16 05:09:58;;;;;;;6.65;2.78;;;;;;;9.06;85.69;102169.25;5001785;28;20046;-48
2023/12/16 05:12:25;;;;;;;6.30;3.22;;;;;;;9.10;85.50;102173.72;5000590;28;20078;-48
2023/12/16 05:15:02;;;;;;;;;;;;;;;9.04;85.85;102173.47;5003941;28;20050;-50
2023/12/16 05:17:29;;;;;;;7.70;3.20;;;;;;;9.10;85.48;102178.88;5001978;28;19952;-56
2023/12/16 05:19:56;;;;;;;6.15;2.67;;;;;;;9.12;85.36;102172.94;5003006;28;20057;-56
2023/12/16 05:22:22;;;;;;;4.90;2.35;;;;;;;9.13;85.59;102184.19;5000039;28;20061;-47
2023/12/16 05:24:50;;;;;;;9.25;3.10;;;;;;;9.15;85.49;102181.66;4998767;28;20054;-49
2023/12/16 05:27:17;;;;;;;5.90;2.90;;;;;;;9.16;85.94;102188.56;4998364;28;20049;-52
2023/12/16 05:29:43;;;;;;;6.68;3.40;;;;;;;9.19;86.04;102191.28;5006523;28;20046;-49
2023/12/16 05:32:10;;;;;;;6.05;2.58;;;;;;;9.22;85.89;102194.00;5005609;28;20042;-49
2023/12/16 05:34:37;;;;;;;7.88;3.00;;;;;;;9.22;86.08;102189.69;4999883;28;20052;-52
2023/12/16 05:37:03;;;;;;;6.32;2.85;;;;;;;9.24;85.51;102195.81;5002096;28;20054;-45
2023/12/16 05:39:30;;;;;;;8.10;3.05;;;;;;;9.26;85.73;102181.22;4995073;28;20070;-54
2023/12/16 05:41:57;;;;;;;4.93;2.30;;;;;;;9.28;85.94;102193.34;4991259;28;20050;-50
2023/12/16 05:44:23;;;;;;;6.00;3.00;;;;;;;9.33;85.71;102204.72;4995658;28;20050;-47
2023/12/16 05:46:51;;;;;;;7.30;2.53;;;;;;;9.29;86.35;102205.44;5003691;28;20057;-52
2023/12/16 05:49:17;;;;;;;4.53;2.35;;;;;;;9.30;86.81;102207.19;5001691;28;20058;-50
2023/12/16 05:51:44;;;;;;;5.53;2.72;;;;;;;9.35;86.28;102196.19;4996550;28;20161;-49
2023/12/16 05:54:11;;;;;;;5.90;3.05;;;;;;;9.38;86.22;102210.94;5000223;28;20053;-50
2023/12/16 05:56:38;;;;;;;3.53;2.08;;;;;;;9.34;86.31;102209.06;5001104;28;20117;-55
2023/12/16 05:59:04;;;;;;;7.15;3.08;;;;;;;9.40;86.31;102204.13;5003079;28;20056;-52
2023/12/16 06:01:31;;;;;;;5.85;2.90;;;;;;;9.42;86.07;102202.47;5003774;28;20046;-51
2023/12/16 06:03:58;;;;;;;6.22;2.85;;;;;;;9.43;85.67;102209.44;5008706;28;20103;-50
2023/12/16 06:06:24;;;;;;;8.30;3.25;;;;;;;9.42;86.30;102212.81;5000751;28;20097;-46
2023/12/16 06:08:53;;;;;;;5.57;2.30;;;;;;;9.45;85.78;102206.88;5002251;28;20050;-50
2023/12/16 06:11:22;;;;;;;4.32;1.98;;;;;;;9.39;86.45;102204.94;5004250;28;20049;-49
2023/12/16 06:13:51;;;;;;;6.65;2.67;;;;;;;9.44;85.99;102199.94;5007551;28;20518;-54
2023/12/16 06:16:17;;;;;;;6.45;2.78;;;;;;;9.44;86.48;102208.59;5004344;28;20047;-47
2023/12/16 06:18:47;;;;;;;7.88;3.10;;;;;;;9.48;86.01;102213.03;5002975;28;20048;-47
2023/12/16 06:21:15;;;;;;;8.35;3.28;;;;;;;9.47;85.47;102213.88;5001703;28;20496;-49
2023/12/16 06:23:42;;;;;;;10.48;2.83;;;;;;;9.46;85.97;102214.69;4997146;28;20046;-46
2023/12/16 06:26:09;;;;;;;7.20;3.20;;;;;;;9.48;85.53;102218.22;5002063;28;20439;-49
2023/12/16 06:28:36;;;;;;;8.48;3.28;;;;;;;9.50;85.67;102221.72;5002064;28;20050;-44
2023/12/16 06:31:03;;;;;;;6.68;3.28;;;;;;;9.51;85.75;102222.63;4998758;28;20051;-48
2023/12/16 06:33:30;;;;;;;7.28;3.28;;;;;;;9.53;85.31;102215.81;5000761;28;20124;-51
2023/12/16 06:35:57;;;;;;;7.22;2.95;;;;;;;9.52;85.61;102214.91;4995236;28;20124;-51
2023/12/16 06:38:23;;;;;;;7.43;2.72;;;;;;;9.51;86.12;102207.09;4995584;28;20474;-49
2023/12/16 06:40:50;;;;;;;8.93;3.63;;;;;;;9.50;85.83;102205.34;5002787;28;20547;-50
2023/12/16 06:43:17;;;;;;;7.78;3.17;;;;;;;9.52;85.83;102204.56;5001508;28;20042;-46
2023/12/16 06:45:43;;;;;;;6.85;2.97;;;;;;;9.52;85.68;102209.75;5000500;28;20562;-48
2023/12/16 06:48:11;;;;;;;7.88;3.15;;;;;;;9.51;85.18;102208.00;5006931;28;20050;-52
2023/12/16 06:50:37;;;;;;;5.35;3.13;;;;;;;9.54;85.36;102214.97;5002488;28;20053;-45
2023/12/16 06:53:04;;;;;;;6.43;2.72;;;;;;;9.49;86.46;102213.94;4999308;28;20117;-57
2023/12/16 06:55:31;;;;;;;9.18;2.85;;;;;;;9.50;85.79;102211.38;5002226;28;20161;-56
2023/12/16 06:57:58;;;;;;;7.85;3.38;;;;;;;9.55;85.26;102208.13;5004662;28;20125;-47
2023/12/16 07:00:24;;;;;;;7.90;3.45;;;;;;;9.56;85.22;102210.72;5003984;28;20133;-47
2023/12/16 07:02:52;;;;;;;8.80;3.53;;;;;;;9.56;85.64;102220.22;5003274;28;20081;-47
2023/12/16 07:05:18;;;;;;;7.35;3.15;;;;;;;9.56;85.44;102217.63;5000141;28;20054;-47
2023/12/16 07:07:45;;;;;;;9.73;3.55;;;;;;;9.56;85.71;102215.03;5000453;28;20042;-51
2023/12/16 07:10:12;;;;;;;6.18;2.33;;;;;;;9.54;85.98;102214.97;4997167;28;20050;-50
2023/12/16 07:12:39;;;;;;;4.43;2.15;;;;;;;9.54;85.65;102219.25;5001763;28;20069;-49
2023/12/16 07:15:07;;;;;;;7.50;3.97;;;;;;;9.58;85.74;102213.38;5001377;28;20468;-47
2023/12/16 07:17:33;;;;;;;5.38;2.92;;;;;;;9.58;85.52;102215.97;5001132;28;20057;-47
2023/12/16 07:20:00;;;;;;;7.35;2.88;;;;;;;9.56;85.99;102210.72;4992994;28;20042;-43
2023/12/16 07:22:29;;;;;;;6.90;3.17;;;;;;;9.61;85.88;102218.66;5004726;28;20057;-48
2023/12/16 07:24:57;;;;;;;7.75;2.92;;;;;;;9.60;85.67;102214.31;4996562;28;20058;-53
2023/12/16 07:27:29;;;;;;;7.68;3.22;;;;;;;9.62;85.90;102228.19;4993167;28;20039;-41
2023/12/16 07:29:55;;;;;;;7.32;3.10;;;;;;;9.58;85.44;102218.53;5006747;28;20441;-52
2023/12/16 07:32:23;;;;;;;7.15;3.03;;;;;;;9.62;84.96;102223.00;4998272;28;20042;-48
2023/12/16 07:34:50;;;;;;;6.85;2.97;;;;;;;9.62;84.97;102221.31;5003478;28;20049;-46
2023/12/16 07:37:18;;;;;;;6.90;3.08;;;;;;;9.62;85.72;102223.00;5001896;28;20054;-54
2023/12/16 07:39:45;;;;;;;6.10;2.50;;;;;;;9.64;85.42;102223.97;5003092;28;20559;-52
2023/12/16 07:42:12;;;;;;;6.50;2.65;;;;;;;9.63;85.67;102235.13;5005339;28;20052;-46
2023/12/16 07:44:39;;;;;;;6.40;3.15;;;;;;;9.61;85.57;102234.19;5001659;28;20046;-50
2023/12/16 07:47:06;;;;;;;7.38;2.65;;;;;;;9.61;85.27;102236.78;5001263;28;20042;-46
2023/12/16 07:49:32;;;;;;;7.95;2.80;;;;;;;9.61;85.69;102239.38;5000463;28;20042;-51
2023/12/16 07:52:00;;;;;;;4.40;1.73;;;;;;;9.58;85.70;102234.97;5004688;28;20073;-47
2023/12/16 07:54:27;;;;;;;7.45;3.13;;;;;;;9.64;85.22;102239.47;4998019;28;20046;-50
2023/12/16 07:56:54;;;;;;;6.45;2.70;;;;;;;9.66;85.08;102234.38;5003792;28;20506;-45
2023/12/16 07:59:21;;;;;;;6.68;2.95;;;;;;;9.65;85.75;102236.06;5002354;28;20506;-54
2023/12/16 08:01:50;;;;;;;5.93;2.72;;;;;;;9.64;85.63;102227.44;5006623;28;20049;-44
2023/12/16 08:04:18;;;;;;;7.22;3.33;;;;;;;9.63;85.38;102220.47;5001892;28;20043;-51
2023/12/16 08:06:45;;;;;;;6.20;2.80;;;;;;;9.59;85.38;102225.50;4994294;28;20123;-52
2023/12/16 08:09:13;;;;;;;7.40;2.95;;;;;;;9.58;84.69;102229.78;5001844;28;20042;-48
2023/12/16 08:11:39;;;;;;;9.45;3.45;;;;;;;9.51;84.95;102232.97;4995641;28;20054;-54
2023/12/16 08:14:07;;;;;;;6.82;3.17;;;;;;;9.50;85.12;102234.66;5005157;28;20538;-53
2023/12/16 08:16:36;;;;;;;5.22;2.58;;;;;;;9.48;85.29;102233.75;4994984;28;20042;-48
2023/12/16 08:19:03;;;;;;;4.50;2.03;;;;;;;9.38;85.52;102227.34;5003531;28;20510;-47
2023/12/16 08:21:30;;;;;;;4.63;2.08;;;;;;;9.42;85.11;102236.09;4992571;28;20068;-47
2023/12/16 08:23:56;;;;;;;5.53;2.35;;;;;;;9.37;85.61;102232.47;4998600;28;20479;-48
2023/12/16 08:26:24;;;;;;;8.40;4.65;;;;;;;9.38;85.60;102227.34;4999296;28;20047;-47
2023/12/16 08:28:51;;;;;;;14.35;6.38;;;;;;;9.37;85.25;102228.19;5001522;28;20057;-42
2023/12/16 08:31:17;;;;;;;19.42;9.82;;;;;;;9.43;85.43;102224.94;4999769;28;20042;-48
2023/12/16 08:33:44;;;;;;;7.50;4.68;;;;;;;9.40;86.03;102222.25;4998233;28;20503;-43
2023/12/16 08:36:11;;;;;;;8.93;4.47;;;;;;;9.42;85.37;102220.56;5001077;28;20057;-51
2023/12/16 08:38:39;;;;;;;6.93;3.50;;;;;;;9.41;85.37;102226.56;5000884;28;20049;-47
2023/12/16 08:41:08;;;;;;;5.40;2.38;;;;;;;9.36;85.96;102239.31;5001507;28;20046;-50
2023/12/16 08:43:34;;;;;;;6.30;3.08;;;;;;;9.38;86.43;102241.97;5001214;28;20070;-49
2023/12/16 08:46:02;;;;;;;6.25;3.13;;;;;;;9.39;86.11;102244.63;5004195;28;20070;-45
2023/12/16 08:48:29;;;;;;;7.20;4.70;;;;;;;9.45;85.75;102243.97;4994402;28;20052;-45
2023/12/16 08:50:57;;;;;;;7.03;3.15;;;;;;;9.43;85.78;102243.06;4998225;28;20049;-46
2023/12/16 08:53:24;;;;;;;4.70;2.67;;;;;;;9.39;86.12;102243.72;5003322;28;20052;-53
2023/12/16 08:55:51;;;;;;;7.35;3.88;;;;;;;9.45;85.92;102243.97;4999759;28;20518;-46
2023/12/16 08:58:18;;;;;;;6.57;4.03;;;;;;;9.42;86.55;102243.84;5000458;28;20489;-50
2023/12/16 09:00:45;;;;;;;8.40;3.45;;;;;;;9.52;85.92;102250.25;5000522;28;20050;-51
2023/12/16 09:03:14;;;;;;;7.20;3.72;;;;;;;9.59;85.94;102246.19;4999979;28;20100;-49
2023/12/16 09:05:41;;;;;;;4.70;2.10;;;;;;;9.59;86.18;102249.66;4994775;28;20709;-45
2023/12/16 09:08:08;;;;;;;7.43;3.10;;;;;;;9.67;85.73;102243.88;5005051;28;20088;-47
2023/12/16 09:10:35;;;;;;;4.13;2.10;;;;;;;9.68;85.01;102243.94;4999884;28;20057;-47
2023/12/16 09:13:01;;;;;;;4.97;2.15;;;;;;;9.68;85.52;102251.69;5004701;28;20050;-49
2023/12/16 09:15:28;;;;;;;5.20;2.17;;;;;;;9.73;84.98;102255.31;5002100;28;20053;-48
2023/12/16 09:17:56;;;;;;;4.65;2.55;;;;;;;9.74;85.41;102261.41;5004829;28;20046;-45
2023/12/16 09:20:23;;;;;;;7.93;3.53;;;;;;;9.73;85.38;102255.31;5002624;28;20128;-49
2023/12/16 09:22:49;;;;;;;5.95;2.70;;;;;;;9.77;84.75;102262.38;5005638;28;20053;-48
2023/12/16 09:25:16;;;;;;;18.40;6.22;;;;;;;9.82;84.63;102269.44;5004756;28;20050;-44
2023/12/16 09:27:43;;;;;;;6.05;2.95;;;;;;;9.84;84.28;102272.97;5009268;28;20143;-49
2023/12/16 09:30:11;;;;;;;5.88;2.97;;;;;;;9.84;84.72;102281.63;5010735;28;20100;-47
2023/12/16 09:32:43;;;;;;;7.50;3.10;;;;;;;9.86;84.34;102289.44;5005299;28;20266;-45
2023/12/16 09:35:09;;;;;;;8.95;3.15;;;;;;;9.90;84.30;102286.13;5008580;28;20104;-56
2023/12/16 09:37:36;;;;;;;3.95;2.03;;;;;;;9.87;84.31;102288.59;5004667;28;20043;-49
2023/12/16 09:40:04;;;;;;;12.13;4.40;;;;;;;9.91;84.37;102298.25;5006596;28;20161;-50
2023/12/16 09:42:34;;;;;;;12.00;4.40;;;;;;;9.95;84.46;102292.34;5007371;28;20058;-47
2023/12/16 09:45:02;;;;;;;8.40;3.10;;;;;;;9.93;84.87;102304.34;5010034;28;20058;-45
2023/12/16 09:47:30;;;;;;;7.43;3.35;;;;;;;9.96;84.80;102320.00;5003678;28;20052;-49
2023/12/16 09:49:59;;;;;;;6.35;2.60;;;;;;;9.99;84.53;102319.22;5003537;28;20050;-47
2023/12/16 09:52:27;;;;;;;6.18;2.42;;;;;;;10.02;84.49;102315.06;5006828;28;20038;-44
2023/12/16 09:54:54;;;;;;;13.07;4.32;;;;;;;10.03;84.59;102306.44;5005645;28;20077;-48
2023/12/16 09:57:23;;;;;;;6.75;2.90;;;;;;;10.08;84.66;102305.72;5003974;28;20129;-52
2023/12/16 09:59:51;;;;;;;6.93;2.42;;;;;;;10.08;84.75;102300.56;5003191;28;20062;-48
2023/12/16 10:02:27;;;;;;;12.05;4.72;;;;;;;10.11;84.82;102308.44;4999829;28;20054;-48
2023/12/16 10:04:57;;;;;;;9.25;3.05;;;;;;;10.17;84.52;102316.44;5002135;28;20054;-50
2023/12/16 10:07:25;;;;;;;6.13;2.10;;;;;;;10.15;83.54;102312.91;5005896;28;20076;-53
2023/12/16 10:09:52;;;;;;;6.60;2.50;;;;;;;10.16;84.26;102304.28;5004518;28;20104;-49
2023/12/16 10:12:19;;;;;;;20.42;5.97;;;;;;;10.18;83.42;102305.25;5002954;28;20049;-49
2023/12/16 10:14:49;;;;;;;16.80;5.07;;;;;;;10.21;84.39;102309.66;5006655;28;20072;-49
2023/12/16 10:17:17;;;;;;;13.18;4.75;;;;;;;10.24;83.35;102304.56;4985916;28;20073;-54
2023/12/16 10:19:46;;;;;;;10.25;4.30;;;;;;;10.24;83.24;102302.84;4981762;28;20055;-52
2023/12/16 10:22:13;;;;;;;6.25;2.25;;;;;;;10.26;83.47;102303.78;4987861;28;20053;-46
2023/12/16 10:24:41;;;;;;;7.25;2.92;;;;;;;10.33;83.74;102309.22;4979958;28;20081;-48
2023/12/16 10:27:10;;;;;;;5.28;2.08;;;;;;;10.30;83.85;102299.59;4977633;28;20042;-50
2023/12/16 10:29:40;;;;;;;10.98;3.25;;;;;;;10.35;84.21;102308.44;4993580;28;20042;-46
2023/12/16 10:32:19;;;;;;;12.07;4.03;;;;;;;10.36;83.23;102309.28;4975818;28;20062;-46
2023/12/16 10:34:46;;;;;;;6.32;2.53;;;;;;;10.36;82.80;102310.19;4988267;28;20626;-46
2023/12/16 10:37:13;;;;;;;5.20;2.75;;;;;;;10.39;83.35;102318.06;4982477;28;20054;-43
2023/12/16 10:39:39;;;;;;;7.68;3.63;;;;;;;10.43;83.68;102316.44;4980221;28;20085;-45
2023/12/16 10:42:06;;;;;;;8.20;3.55;;;;;;;10.44;84.09;102320.81;4982312;28;20054;-45
2023/12/16 10:44:33;;;;;;;8.50;3.60;;;;;;;10.47;82.80;102330.44;4985557;28;20050;-46
2023/12/16 10:47:01;;;;;;;5.47;2.65;;;;;;;10.45;83.46;102320.03;4985095;28;20416;-49
2023/12/16 10:49:29;;;;;;;7.20;3.22;;;;;;;10.48;83.04;102314.94;4984989;28;20046;-50
2023/12/16 10:52:06;;;;;;;10.02;4.25;;;;;;;10.50;83.51;102313.28;4990621;28;20050;-46
2023/12/16 10:54:39;;;;;;;5.68;2.50;;;;;;;10.53;82.67;102303.03;4982434;28;20477;-45
2023/12/16 11:00:23;;;;;;;4.35;2.67;;;;;;;10.50;83.53;102310.69;5053502;28;20405;-50
2023/12/16 11:05:29;;;;;;;3.97;1.92;;;;;;;10.54;83.35;102291.81;5065794;28;20733;-46
2023/12/16 11:07:57;;;;;;;3.38;1.85;;;;;;;10.49;82.81;102303.75;5049321;28;20095;-47
2023/12/16 11:10:24;;;;;;;3.50;1.80;;;;;;;10.56;82.25;102296.16;5054760;28;20037;-45
2023/12/16 11:12:53;;;;;;;4.88;1.70;;;;;;;10.56;83.49;102296.16;5059719;28;20130;-48
2023/12/16 11:15:21;;;;;;;3.47;1.52;;;;;;;10.56;83.37;102290.97;5045646;28;20779;-52
2023/12/16 11:17:57;;;;;;;3.95;1.52;;;;;;;10.58;82.05;102289.34;5043720;28;20130;-50
2023/12/16 11:20:31;;;;;;;3.85;1.98;;;;;;;10.62;83.24;102283.41;5044800;28;20095;-47
2023/12/16 11:22:59;;;;;;;5.05;1.92;;;;;;;10.60;82.39;102277.31;5049849;28;20053;-53
2023/12/16 11:25:26;;;;;;;5.60;1.45;;;;;;;10.63;82.30;102272.22;5042386;28;20119;-48
2023/12/16 11:27:55;;;;;;;5.05;2.50;;;;;;;10.69;82.64;102267.25;5060043;28;20045;-56
2023/12/16 11:30:22;;;;;;;3.58;1.95;;;;;;;10.72;82.99;102267.34;5052375;28;20120;-49
2023/12/16 11:32:54;;;;;;;2.90;1.50;;;;;;;10.71;81.80;102265.56;5057132;28;20080;-54
2023/12/16 11:38:48;;;;;;;3.22;1.50;;;;;;;10.69;81.64;102258.56;5022692;27;20403;-48
2023/12/16 11:44:11;;;;;;;3.88;2.78;;;;;;;10.71;81.64;102229.28;5040821;27;20393;-55